createdAt,value
2023-05-25T00:01:36.155Z,52.24
2023-05-25T00:04:38.819Z,53.13
2023-05-25T00:07:41.488Z,53.67
2023-05-25T00:10:45.454Z,53.48
2023-05-25T00:13:48.395Z,53.80
2023-05-25T00:16:51.554Z,53.77
2023-05-25T00:19:58.249Z,54.22
2023-05-25T00:23:02.231Z,54.22
2023-05-25T00:26:06.410Z,53.98
2023-05-25T00:29:09.015Z,54.33
2023-05-25T00:32:11.657Z,54.03
2023-05-25T00:35:14.353Z,53.61
2023-05-25T00:38:18.303Z,53.20
2023-05-25T00:41:22.495Z,53.24
2023-05-25T00:44:25.204Z,52.90
2023-05-25T00:47:28.753Z,53.00
2023-05-25T00:50:39.010Z,52.89
2023-05-25T00:53:41.611Z,53.53
2023-05-25T00:56:48.708Z,53.20
2023-05-25T00:59:52.869Z,53.68
2023-05-25T01:02:57.141Z,54.49
2023-05-25T01:06:00.816Z,54.75
2023-05-25T01:09:04.563Z,54.81
2023-05-25T01:12:09.142Z,55.39
2023-05-25T01:15:12.790Z,55.50
2023-05-25T01:18:15.569Z,55.80
2023-05-25T01:21:22.086Z,55.77
2023-05-25T01:24:31.967Z,55.23
2023-05-25T01:27:39.487Z,55.15
2023-05-25T01:30:43.393Z,55.74
2023-05-25T01:33:46.862Z,55.72
2023-05-25T01:36:51.419Z,55.46
2023-05-25T01:39:54.409Z,55.54
2023-05-25T01:42:57.202Z,56.24
2023-05-25T01:46:07.850Z,56.30
2023-05-25T01:49:16.914Z,56.96
2023-05-25T01:52:25.125Z,57.36
2023-05-25T01:55:30.074Z,57.69
2023-05-25T01:58:36.803Z,57.60
2023-05-25T02:01:40.337Z,57.63
2023-05-25T02:04:43.866Z,57.65
2023-05-25T02:07:47.743Z,58.16
2023-05-25T02:10:50.649Z,58.35
2023-05-25T02:13:53.247Z,58.62
2023-05-25T02:16:57.706Z,58.65
2023-05-25T02:20:00.562Z,59.00
2023-05-25T02:23:06.746Z,59.20
2023-05-25T02:26:09.424Z,59.26
2023-05-25T02:29:12.242Z,59.29
2023-05-25T02:32:14.928Z,59.71
2023-05-25T02:35:17.739Z,59.53
2023-05-25T02:38:21.707Z,59.73
2023-05-25T02:41:26.340Z,59.80
2023-05-25T02:44:29.021Z,60.06
2023-05-25T02:47:31.618Z,59.81
2023-05-25T02:50:34.415Z,60.41
2023-05-25T02:53:38.398Z,61.08
2023-05-25T02:56:42.383Z,60.61
2023-05-25T02:59:44.999Z,60.31
2023-05-25T03:02:48.950Z,59.80
2023-05-25T03:05:51.646Z,60.13
2023-05-25T03:08:55.712Z,60.65
2023-05-25T03:11:58.454Z,60.72
2023-05-25T03:15:01.102Z,61.07
2023-05-25T03:18:04.015Z,61.18
2023-05-25T03:21:06.993Z,60.85
2023-05-25T03:24:11.071Z,61.55
2023-05-25T03:27:13.720Z,61.50
2023-05-25T03:30:16.344Z,61.69
2023-05-25T03:33:18.939Z,61.72
2023-05-25T03:36:22.264Z,61.81
2023-05-25T03:39:26.712Z,61.83
2023-05-25T03:42:29.538Z,61.87
2023-05-25T03:45:32.244Z,61.95
2023-05-25T03:48:34.867Z,61.87
2023-05-25T03:51:37.720Z,62.37
2023-05-25T03:54:41.900Z,62.01
2023-05-25T03:57:44.685Z,61.96
2023-05-25T04:00:49.202Z,61.97
2023-05-25T04:03:52.950Z,61.66
2023-05-25T04:06:55.973Z,62.04
2023-05-25T04:10:00.226Z,61.99
2023-05-25T04:13:02.780Z,61.08
2023-05-25T04:16:05.942Z,60.87
2023-05-25T04:19:08.864Z,60.52
2023-05-25T04:22:11.519Z,59.97
2023-05-25T04:25:17.152Z,59.90
2023-05-25T04:28:19.800Z,59.75
2023-05-25T04:31:22.863Z,59.62
2023-05-25T04:34:26.259Z,59.80
2023-05-25T04:37:30.611Z,59.17
2023-05-25T04:40:35.462Z,59.56
2023-05-25T04:43:40.308Z,58.66
2023-05-25T04:46:46.519Z,58.59
2023-05-25T04:49:49.183Z,57.86
2023-05-25T04:52:51.781Z,57.27
2023-05-25T04:55:55.743Z,56.24
2023-05-25T04:58:58.749Z,55.50
2023-05-25T05:02:01.570Z,54.37
2023-05-25T05:05:04.344Z,54.47
2023-05-25T05:08:07.087Z,54.42
2023-05-25T05:11:11.556Z,53.08
2023-05-25T05:14:14.455Z,53.11
2023-05-25T05:17:17.612Z,52.80
2023-05-25T05:20:20.484Z,52.33
2023-05-25T05:23:23.940Z,51.95
2023-05-25T05:26:28.109Z,52.00
2023-05-25T05:29:30.819Z,52.03
2023-05-25T05:32:33.375Z,51.49
2023-05-25T05:35:36.010Z,50.47
2023-05-25T05:38:40.414Z,51.18
2023-05-25T05:41:45.600Z,50.57
2023-05-25T05:44:48.313Z,50.45
2023-05-25T05:47:51.054Z,50.18
2023-05-25T05:50:54.012Z,49.65
2023-05-25T05:53:56.758Z,49.58
2023-05-25T05:57:01.440Z,49.71
2023-05-25T06:00:06.839Z,49.68
2023-05-25T06:03:09.628Z,49.51
2023-05-25T06:06:12.866Z,48.51
2023-05-25T06:09:15.742Z,47.63
2023-05-25T06:12:19.759Z,47.75
2023-05-25T06:15:22.549Z,48.07
2023-05-25T06:18:25.534Z,49.17
2023-05-25T06:21:28.101Z,48.92
2023-05-25T06:24:31.408Z,48.53
2023-05-25T06:27:35.436Z,48.03
2023-05-25T06:30:38.367Z,47.96
2023-05-25T06:33:41.094Z,47.93
2023-05-25T06:36:43.732Z,47.55
2023-05-25T06:39:46.313Z,48.18
2023-05-25T06:42:50.377Z,48.51
2023-05-25T06:45:52.986Z,49.45
2023-05-25T06:48:55.563Z,48.87
2023-05-25T06:51:58.290Z,48.34
2023-05-25T06:55:01.101Z,47.15
2023-05-25T06:58:05.036Z,46.53
2023-05-25T07:01:07.931Z,45.93
2023-05-25T07:04:11.496Z,46.40
2023-05-25T07:07:14.431Z,45.75
2023-05-25T07:10:17.055Z,45.29
2023-05-25T07:13:21.124Z,44.77
2023-05-25T07:16:23.836Z,44.41
2023-05-25T07:19:26.517Z,43.75
2023-05-25T07:22:29.123Z,44.29
2023-05-25T07:25:31.903Z,44.28
2023-05-25T07:28:36.382Z,43.96
2023-05-25T07:31:39.011Z,43.45
2023-05-25T07:34:42.638Z,42.26
2023-05-25T07:37:45.611Z,41.38
2023-05-25T07:40:49.219Z,40.75
2023-05-25T07:43:53.450Z,40.09
2023-05-25T07:46:56.284Z,40.27
2023-05-25T07:49:59.041Z,39.51
2023-05-25T07:53:01.881Z,41.00
2023-05-25T07:56:06.250Z,39.68
2023-05-25T07:59:11.237Z,39.19
2023-05-25T08:02:14.076Z,38.63
2023-05-25T08:05:16.859Z,39.48
2023-05-25T08:08:20.212Z,39.82
2023-05-25T08:11:23.911Z,40.03
2023-05-25T08:14:28.455Z,39.87
2023-05-25T08:17:31.041Z,40.48
2023-05-25T08:20:33.989Z,40.32
2023-05-25T08:23:42.487Z,40.35
2023-05-25T08:29:57.034Z,41.66
2023-05-25T08:32:59.707Z,41.66
2023-05-25T08:36:02.359Z,41.17
2023-05-25T08:39:07.946Z,41.71
2023-05-25T08:42:10.750Z,40.99
2023-05-25T08:45:30.354Z,39.67
2023-05-25T08:48:42.463Z,39.09
2023-05-25T08:51:49.796Z,38.92
2023-05-25T08:54:54.429Z,38.00
2023-05-25T08:58:00.905Z,38.76
2023-05-25T09:01:07.461Z,38.83
2023-05-25T09:04:10.405Z,39.15
2023-05-25T09:07:13.357Z,40.77
2023-05-25T09:10:16.183Z,40.92
2023-05-25T09:13:22.440Z,40.15
2023-05-25T09:16:27.282Z,39.27
2023-05-25T09:19:30.221Z,38.57
2023-05-25T09:22:32.940Z,37.81
2023-05-25T09:25:36.452Z,36.80
2023-05-25T09:28:46.596Z,35.56
2023-05-25T09:31:50.806Z,35.35
2023-05-25T09:34:53.549Z,34.62
2023-05-25T09:37:56.334Z,34.75
2023-05-25T09:40:59.130Z,34.39
2023-05-25T09:44:10.946Z,34.41
2023-05-25T09:47:17.024Z,34.18
2023-05-25T09:50:19.852Z,33.86
2023-05-25T09:53:22.485Z,33.34
2023-05-25T09:56:25.127Z,33.03
2023-05-25T09:59:28.161Z,33.42
2023-05-25T10:02:32.141Z,34.25
2023-05-25T10:05:34.748Z,34.66
2023-05-25T10:08:37.421Z,34.13
2023-05-25T10:11:40.298Z,34.32
2023-05-25T10:14:44.146Z,33.64
2023-05-25T10:17:53.691Z,33.70
2023-05-25T10:21:03.277Z,32.69
2023-05-25T10:24:13.561Z,33.75
2023-05-25T10:27:27.099Z,33.90
2023-05-25T10:30:30.449Z,34.24
2023-05-25T10:33:35.008Z,33.53
2023-05-25T10:36:38.577Z,33.51
2023-05-25T10:39:42.941Z,32.48
2023-05-25T10:42:46.372Z,31.51
2023-05-25T10:45:49.554Z,30.30
2023-05-25T10:48:53.484Z,30.07
2023-05-25T10:51:59.731Z,30.77
2023-05-25T10:55:04.830Z,31.64
2023-05-25T10:58:11.601Z,30.70
2023-05-25T11:01:16.553Z,30.49
2023-05-25T11:04:20.837Z,30.83
2023-05-25T11:07:23.431Z,29.60
2023-05-25T11:10:54.531Z,29.36
2023-05-25T11:13:57.264Z,28.93
2023-05-25T11:17:08.268Z,30.94
2023-05-25T11:20:22.959Z,30.23
2023-05-25T11:23:26.105Z,29.58
2023-05-25T11:26:29.172Z,28.68
2023-05-25T11:29:33.249Z,28.80
2023-05-25T11:32:39.633Z,27.72
2023-05-25T11:35:45.844Z,27.77
2023-05-25T11:39:02.556Z,28.65
2023-05-25T11:42:11.249Z,28.60
2023-05-25T11:45:15.547Z,27.91
2023-05-25T11:48:18.478Z,28.01
2023-05-25T11:51:24.576Z,27.52
2023-05-25T11:54:28.382Z,27.48
2023-05-25T11:57:31.113Z,28.04
2023-05-25T12:00:34.084Z,27.14
2023-05-25T12:03:37.036Z,26.67
2023-05-25T12:06:41.223Z,25.92
2023-05-25T12:09:43.896Z,27.20
2023-05-25T12:12:48.155Z,26.99
2023-05-25T12:15:52.475Z,27.77
2023-05-25T12:18:55.602Z,28.32
2023-05-25T12:21:59.629Z,28.32
2023-05-25T12:25:03.571Z,27.61
2023-05-25T12:28:12.261Z,28.28
2023-05-25T12:31:22.051Z,27.53
2023-05-25T12:34:28.576Z,26.90
2023-05-25T12:37:32.885Z,27.46
2023-05-25T12:40:35.572Z,26.89
2023-05-25T12:43:39.809Z,26.75
2023-05-25T12:46:42.438Z,26.90
2023-05-25T12:49:46.536Z,25.78
2023-05-25T12:52:50.543Z,24.74
2023-05-25T12:56:02.105Z,24.31
2023-05-25T12:59:15.493Z,23.80
2023-05-25T13:02:18.372Z,23.12
2023-05-25T13:05:22.281Z,23.83
2023-05-25T13:08:26.218Z,24.37
2023-05-25T13:11:28.776Z,24.58
2023-05-25T13:14:31.508Z,24.51
2023-05-25T13:17:34.273Z,23.08
2023-05-25T13:20:37.094Z,22.16
2023-05-25T13:23:41.103Z,21.60
2023-05-25T13:26:46.459Z,21.58
2023-05-25T13:29:50.026Z,21.19
2023-05-25T13:32:52.807Z,22.75
2023-05-25T13:36:08.067Z,21.39
2023-05-25T13:39:13.685Z,21.11
2023-05-25T13:42:16.625Z,20.12
2023-05-25T13:45:19.668Z,17.01
2023-05-25T13:48:22.575Z,18.32
2023-05-25T13:51:25.293Z,16.50
2023-05-25T13:54:29.350Z,15.55
2023-05-25T13:57:32.004Z,16.85
2023-05-25T14:00:34.924Z,14.14
2023-05-25T14:03:38.549Z,12.94
2023-05-25T14:06:41.184Z,12.00
2023-05-25T14:09:45.632Z,14.54
2023-05-25T14:12:48.315Z,15.47
2023-05-25T14:15:51.108Z,15.83
2023-05-25T14:18:53.857Z,16.94
2023-05-25T14:22:11.623Z,17.74
2023-05-25T14:25:17.261Z,19.78
2023-05-25T14:28:19.899Z,20.54
2023-05-25T14:31:22.789Z,20.66
2023-05-25T14:34:25.550Z,19.11
2023-05-25T14:37:28.309Z,19.75
2023-05-25T14:40:32.636Z,19.21
2023-05-25T14:43:35.616Z,20.65
2023-05-25T14:46:38.529Z,20.52
2023-05-25T14:49:41.486Z,19.55
2023-05-25T14:52:44.322Z,13.65
2023-05-25T14:55:48.443Z,10.66
2023-05-25T14:58:51.133Z,8.48
2023-05-25T15:01:53.704Z,8.23
2023-05-25T15:04:56.338Z,12.06
2023-05-25T15:07:59.438Z,11.88
2023-05-25T15:11:03.302Z,10.79
2023-05-25T15:14:05.854Z,8.78
2023-05-25T15:17:08.453Z,9.90
2023-05-25T15:20:12.483Z,12.32
2023-05-25T15:23:15.301Z,15.57
2023-05-25T15:26:19.406Z,16.70
2023-05-25T15:29:22.221Z,11.85
2023-05-25T15:32:24.862Z,10.25
2023-05-25T15:35:31.353Z,10.64
2023-05-25T15:38:33.938Z,12.49
2023-05-25T15:41:38.003Z,14.58
2023-05-25T15:44:41.059Z,14.98
2023-05-25T15:47:43.924Z,13.70
2023-05-25T15:50:47.065Z,11.17
2023-05-25T15:53:49.695Z,10.40
2023-05-25T15:56:53.877Z,10.40
2023-05-25T15:59:56.495Z,9.53
2023-05-25T16:02:59.074Z,9.45
2023-05-25T16:06:02.254Z,9.61
2023-05-25T16:09:05.114Z,9.18
2023-05-25T16:12:09.572Z,9.24
2023-05-25T16:15:12.463Z,9.12
2023-05-25T16:18:16.644Z,8.29
2023-05-25T16:21:19.288Z,8.51
2023-05-25T16:24:21.946Z,10.05
2023-05-25T16:27:26.127Z,10.30
2023-05-25T16:30:28.742Z,9.56
2023-05-25T16:33:31.315Z,10.36
2023-05-25T16:36:33.967Z,11.75
2023-05-25T16:39:36.906Z,11.37
2023-05-25T16:42:40.901Z,10.69
2023-05-25T16:45:43.853Z,10.13
2023-05-25T16:48:46.557Z,9.75
2023-05-25T16:51:49.308Z,10.52
2023-05-25T16:54:51.855Z,11.03
2023-05-25T16:57:55.926Z,12.40
2023-05-25T17:00:58.588Z,11.93
2023-05-25T17:04:01.376Z,11.91
2023-05-25T17:07:04.187Z,12.53
2023-05-25T17:10:08.104Z,14.30
2023-05-25T17:13:12.140Z,18.66
2023-05-25T17:16:14.927Z,21.58
2023-05-25T17:19:17.539Z,23.49
2023-05-25T17:22:20.107Z,25.00
2023-05-25T17:25:22.939Z,25.70
2023-05-25T17:28:28.733Z,26.41
2023-05-25T17:31:31.409Z,27.20
2023-05-25T17:34:34.121Z,28.00
2023-05-25T17:37:36.650Z,29.07
2023-05-25T17:40:39.235Z,29.31
2023-05-25T17:43:43.280Z,29.73
2023-05-25T17:46:45.950Z,30.35
2023-05-25T17:49:48.636Z,30.57
2023-05-25T17:52:51.217Z,30.92
2023-05-25T17:55:54.032Z,30.90
2023-05-25T17:58:57.837Z,31.63
2023-05-25T18:02:00.552Z,31.39
2023-05-25T18:05:03.317Z,32.05
2023-05-25T18:08:06.093Z,32.13
2023-05-25T18:11:08.803Z,32.62
2023-05-25T18:14:12.823Z,32.89
2023-05-25T18:17:15.555Z,33.18
2023-05-25T18:20:18.332Z,33.15
2023-05-25T18:23:22.151Z,33.78
2023-05-25T18:26:24.818Z,33.96
2023-05-25T18:29:28.692Z,34.23
2023-05-25T18:32:31.293Z,34.53
2023-05-25T18:35:33.970Z,34.58
2023-05-25T18:38:36.672Z,34.83
2023-05-25T18:41:39.538Z,35.15
2023-05-25T18:44:43.325Z,35.62
2023-05-25T18:47:46.031Z,35.86
2023-05-25T18:50:48.956Z,36.19
2023-05-25T18:53:51.614Z,36.64
2023-05-25T18:56:54.176Z,36.81
2023-05-25T18:59:58.138Z,36.90
2023-05-25T19:03:00.849Z,37.52
2023-05-25T19:06:03.876Z,37.76
2023-05-25T19:09:06.520Z,38.40
2023-05-25T19:12:09.584Z,38.38
2023-05-25T19:15:14.217Z,38.49
2023-05-25T19:18:17.041Z,39.18
2023-05-25T19:21:19.632Z,39.64
2023-05-25T19:24:22.189Z,41.02
2023-05-25T19:27:25.268Z,41.31
2023-05-25T19:30:29.334Z,42.32
2023-05-25T19:33:31.892Z,42.49
2023-05-25T19:36:34.492Z,43.38
2023-05-25T19:39:37.058Z,44.02
2023-05-25T19:42:39.859Z,44.56
2023-05-25T19:45:44.775Z,44.96
2023-05-25T19:48:47.487Z,45.51
2023-05-25T19:51:50.137Z,46.31
2023-05-25T19:54:52.762Z,46.60
2023-05-25T19:57:55.332Z,46.84
2023-05-25T20:00:59.433Z,47.26
2023-05-25T20:04:02.092Z,47.48
2023-05-25T20:07:04.663Z,47.93
2023-05-25T20:10:07.994Z,48.33
2023-05-25T20:13:10.855Z,48.78
2023-05-25T20:16:15.023Z,48.73
2023-05-25T20:19:18.964Z,49.25
2023-05-25T20:22:21.967Z,49.48
2023-05-25T20:25:24.773Z,49.58
2023-05-25T20:28:27.378Z,49.60
2023-05-25T20:31:31.322Z,49.92
2023-05-25T20:34:33.994Z,49.98
2023-05-25T20:37:36.625Z,50.75
2023-05-25T20:40:39.252Z,50.47
2023-05-25T20:43:42.084Z,50.86
2023-05-25T20:46:45.947Z,51.03
2023-05-25T20:49:48.509Z,51.37
2023-05-25T20:52:51.067Z,51.41
2023-05-25T20:55:53.668Z,51.41
2023-05-25T20:58:57.504Z,51.93
2023-05-25T21:02:02.243Z,52.17
2023-05-25T21:05:05.270Z,52.34
2023-05-25T21:08:07.896Z,52.32
2023-05-25T21:11:10.712Z,52.73
2023-05-25T21:14:13.302Z,53.19
2023-05-25T21:17:19.537Z,53.22
2023-05-25T21:20:22.295Z,53.69
2023-05-25T21:23:25.259Z,53.63
2023-05-25T21:26:27.982Z,53.59
2023-05-25T21:29:30.666Z,53.30
2023-05-25T21:32:34.857Z,53.94
2023-05-25T21:35:37.603Z,54.07
2023-05-25T21:38:40.317Z,54.31
2023-05-25T21:41:42.813Z,54.23
2023-05-25T21:44:45.334Z,54.33
2023-05-25T21:47:49.407Z,54.96
2023-05-25T21:50:52.058Z,55.14
2023-05-25T21:53:54.728Z,54.90
2023-05-25T21:56:57.517Z,54.94
2023-05-25T22:00:00.090Z,55.33
2023-05-25T22:03:04.192Z,55.35
2023-05-25T22:06:07.140Z,55.13
2023-05-25T22:09:09.907Z,55.89
2023-05-25T22:12:13.101Z,55.79
2023-05-25T22:15:15.650Z,55.75
2023-05-25T22:18:19.645Z,55.76
2023-05-25T22:21:22.347Z,55.89
2023-05-25T22:24:24.927Z,55.90
2023-05-25T22:27:27.520Z,56.21
2023-05-25T22:30:30.153Z,55.94
2023-05-25T22:33:34.174Z,56.14
2023-05-25T22:36:37.164Z,56.45
2023-05-25T22:39:39.956Z,56.35
2023-05-25T22:42:45.006Z,56.16
2023-05-25T22:45:47.894Z,55.96
2023-05-25T22:48:51.967Z,56.01
2023-05-25T22:51:54.647Z,56.26
2023-05-25T22:54:57.292Z,56.21
2023-05-25T22:57:59.969Z,56.05
2023-05-25T23:01:02.679Z,56.31
2023-05-25T23:04:06.992Z,56.36
2023-05-25T23:07:09.813Z,56.15
2023-05-25T23:10:12.429Z,56.46
2023-05-25T23:13:15.429Z,56.34
2023-05-25T23:16:18.681Z,56.73
2023-05-25T23:19:23.471Z,56.65
2023-05-25T23:22:26.109Z,56.68
2023-05-25T23:25:28.686Z,56.49
2023-05-25T23:28:31.383Z,56.38
2023-05-25T23:31:34.151Z,56.13
2023-05-25T23:34:38.088Z,56.46
2023-05-25T23:37:40.677Z,56.21
2023-05-25T23:40:43.216Z,55.48
2023-05-25T23:43:46.506Z,55.51
2023-05-25T23:46:49.170Z,55.56
2023-05-25T23:49:53.091Z,55.69
2023-05-25T23:52:55.711Z,56.42
2023-05-25T23:55:58.356Z,56.24
2023-05-25T23:59:01.010Z,56.48
